Time;durP1;ratioP1;P1;durP2;ratioP2;P2;SDS_P1;SDS_P2;PMS_P1;PMS_P2;Temp;Humidity;BMP_temperature;BMP_pressure;BME280_temperature;BME280_humidity;BME280_pressure;Samples;Min_cycle;Max_cycle;Signal;HPM_P1;HPM_P2
2023/07/29 00:00:46;;;;;;;1.67;1.20;;;;;;;18.61;100.00;100467.69;5010352;28;20164;-70
2023/07/29 00:03:11;;;;;;;2.63;1.40;;;;;;;18.60;100.00;100462.63;5030912;28;21675;-70
2023/07/29 00:05:38;;;;;;;3.70;1.30;;;;;;;18.57;100.00;100457.81;5014242;28;20033;-70
2023/07/29 00:08:04;;;;;;;2.95;1.50;;;;;;;18.56;100.00;100446.50;5017065;28;20045;-70
2023/07/29 00:10:31;;;;;;;6.00;1.50;;;;;;;18.55;100.00;100451.97;5031514;28;20021;-70
2023/07/29 00:12:56;;;;;;;4.43;1.40;;;;;;;18.56;100.00;100448.34;5005771;28;20065;-70
2023/07/29 00:15:22;;;;;;;1.98;1.42;;;;;;;18.53;100.00;100446.94;5009565;28;20061;-70
2023/07/29 00:17:47;;;;;;;2.60;1.48;;;;;;;18.53;100.00;100443.50;5023433;28;20060;-70
2023/07/29 00:20:13;;;;;;;2.97;1.52;;;;;;;18.54;100.00;100445.13;5006914;28;20037;-69
2023/07/29 00:22:38;;;;;;;3.13;1.60;;;;;;;18.53;100.00;100439.06;5008008;28;20146;-70
2023/07/29 00:25:04;;;;;;;3.95;1.80;;;;;;;18.52;100.00;100440.09;5010549;28;20045;-70
2023/07/29 00:27:30;;;;;;;2.45;1.38;;;;;;;18.51;100.00;100437.69;5025890;28;20029;-70
2023/07/29 00:29:55;;;;;;;2.67;1.52;;;;;;;18.49;100.00;100440.50;5011554;28;20029;-70
2023/07/29 00:32:21;;;;;;;4.65;1.65;;;;;;;18.52;100.00;100440.09;5012071;28;20025;-70
2023/07/29 00:34:46;;;;;;;1.90;1.70;;;;;;;18.51;100.00;100443.72;5025870;28;20483;-70
2023/07/29 00:37:12;;;;;;;2.78;1.95;;;;;;;18.48;100.00;100442.34;5010072;28;20076;-70
2023/07/29 00:39:37;;;;;;;2.22;1.58;;;;;;;18.44;100.00;100446.44;5013590;28;20034;-70
2023/07/29 00:42:04;;;;;;;4.43;1.60;;;;;;;18.47;100.00;100438.09;5014148;28;20045;-70
2023/07/29 00:44:31;;;;;;;2.30;1.58;;;;;;;18.47;100.00;100445.97;5006312;28;20048;-70
2023/07/29 00:47:02;;;;;;;4.03;1.63;;;;;;;18.47;100.00;100443.34;4996144;28;20040;-69
2023/07/29 00:49:28;;;;;;;3.05;1.75;;;;;;;18.48;100.00;100437.09;5006860;28;20700;-70
2023/07/29 00:51:53;;;;;;;4.43;1.60;;;;;;;18.49;100.00;100435.25;5023692;28;20124;-72
2023/07/29 00:54:19;;;;;;;2.35;1.45;;;;;;;18.49;100.00;100438.69;5025911;28;20037;-70
2023/07/29 00:56:45;;;;;;;2.35;1.50;;;;;;;18.49;100.00;100433.44;5021609;28;20033;-70
2023/07/29 00:59:11;;;;;;;3.03;1.60;;;;;;;18.51;100.00;100430.59;5009678;28;20155;-70
2023/07/29 01:01:38;;;;;;;2.65;1.90;;;;;;;18.51;100.00;100427.19;4991805;28;20042;-70
2023/07/29 01:04:03;;;;;;;4.10;1.75;;;;;;;18.50;100.00;100429.00;5022631;28;20053;-70
2023/07/29 01:06:50;;;;;;;1.92;1.60;;;;;;;18.48;100.00;100434.47;5005835;28;20526;-70
2023/07/29 01:09:42;;;;;;;3.05;1.90;;;;;;;18.46;100.00;100420.75;5023695;28;20638;-70
2023/07/29 01:12:16;;;;;;;2.70;1.88;;;;;;;18.47;100.00;100419.72;4976344;28;20030;-70
2023/07/29 01:14:55;;;;;;;3.30;1.67;;;;;;;18.47;100.00;100411.06;5004392;28;20519;-70
2023/07/29 01:17:33;;;;;;;3.28;1.73;;;;;;;18.46;100.00;100406.84;5004106;28;20128;-70
2023/07/29 01:20:09;;;;;;;1.80;1.60;;;;;;;18.45;100.00;100403.38;4989823;28;20821;-70
2023/07/29 01:22:36;;;;;;;3.58;1.52;;;;;;;18.48;100.00;100404.81;5008052;28;20049;-70
2023/07/29 01:25:03;;;;;;;4.10;2.10;;;;;;;18.47;100.00;100411.84;5025194;28;20028;-70
2023/07/29 01:27:30;;;;;;;2.65;1.95;;;;;;;18.47;100.00;100426.81;5003526;28;20045;-70
2023/07/29 01:29:57;;;;;;;3.08;1.60;;;;;;;18.46;100.00;100415.50;5020841;28;20068;-70
2023/07/29 01:32:39;;;;;;;2.00;1.48;;;;;;;18.46;100.00;100415.50;5006662;28;20128;-70
2023/07/29 01:35:39;;;;;;;2.17;1.67;;;;;;;18.46;100.00;100406.84;5010011;28;20029;-70
2023/07/29 01:38:09;;;;;;;2.45;1.60;;;;;;;18.45;100.00;100413.91;5002643;28;20049;-70
2023/07/29 01:40:35;;;;;;;2.80;1.40;;;;;;;18.45;100.00;100416.53;5003716;28;20052;-69
2023/07/29 01:43:01;;;;;;;3.13;1.80;;;;;;;18.46;100.00;100415.50;5004620;28;20037;-70
2023/07/29 01:45:26;;;;;;;2.75;1.35;;;;;;;18.47;100.00;100405.81;5025443;28;20040;-70
2023/07/29 01:47:52;;;;;;;3.25;1.70;;;;;;;18.47;100.00;100398.72;5000673;28;20052;-70
2023/07/29 01:50:17;;;;;;;3.63;1.80;;;;;;;18.48;100.00;100392.47;5025172;28;20037;-70
2023/07/29 01:52:44;;;;;;;4.43;1.70;;;;;;;18.52;100.00;100384.16;5007303;28;20096;-69
2023/07/29 01:55:09;;;;;;;4.65;1.73;;;;;;;18.55;100.00;100388.97;5019143;28;20045;-69
2023/07/29 01:57:35;;;;;;;2.20;1.65;;;;;;;18.51;100.00;100393.06;5008767;28;20052;-70
2023/07/29 02:00:01;;;;;;;3.28;1.70;;;;;;;18.47;100.00;100400.56;5003950;28;20025;-70
2023/07/29 02:02:27;;;;;;;2.25;1.30;;;;;;;18.46;100.00;100405.00;5002762;28;20104;-70
2023/07/29 02:04:52;;;;;;;4.95;1.90;;;;;;;18.45;100.00;100411.28;5003891;28;20518;-69
2023/07/29 02:07:19;;;;;;;2.58;1.63;;;;;;;18.43;100.00;100409.88;5004980;28;20045;-70
2023/07/29 02:09:44;;;;;;;1.55;1.40;;;;;;;18.41;100.00;100412.72;5017594;28;20816;-69
2023/07/29 02:12:10;;;;;;;1.85;1.70;;;;;;;18.41;100.00;100414.56;5004442;28;20075;-69
2023/07/29 02:14:38;;;;;;;3.67;1.80;;;;;;;18.42;100.00;100413.53;5020534;28;20032;-69
2023/07/29 02:17:04;;;;;;;2.30;1.75;;;;;;;18.42;100.00;100416.16;5006084;28;20500;-69
2023/07/29 02:19:29;;;;;;;3.30;1.98;;;;;;;18.41;100.00;100420.59;5001488;28;20030;-69
2023/07/29 02:21:55;;;;;;;2.55;2.10;;;;;;;18.40;100.00;100419.00;5005966;28;20037;-69
2023/07/29 02:24:20;;;;;;;2.90;1.90;;;;;;;18.40;100.00;100403.25;5021607;28;20037;-69
2023/07/29 02:26:46;;;;;;;4.38;1.88;;;;;;;18.40;100.00;100408.50;5001696;28;20038;-69
2023/07/29 02:29:11;;;;;;;3.95;2.30;;;;;;;18.40;100.00;100398.00;4988523;28;20091;-69
2023/07/29 02:31:38;;;;;;;3.08;2.00;;;;;;;18.38;100.00;100407.91;5006576;28;20521;-69
2023/07/29 02:34:04;;;;;;;2.03;1.83;;;;;;;18.39;100.00;100408.72;5003181;28;20134;-70
2023/07/29 02:36:29;;;;;;;3.40;1.80;;;;;;;18.38;100.00;100407.09;5018335;28;20107;-69
2023/07/29 02:38:56;;;;;;;4.10;2.15;;;;;;;18.39;100.00;100417.41;5004188;28;20033;-69
2023/07/29 02:41:21;;;;;;;3.28;2.05;;;;;;;18.37;100.00;100416.00;5004062;28;20034;-70
2023/07/29 02:43:50;;;;;;;2.85;1.83;;;;;;;18.35;100.00;100420.69;5007418;28;20060;-69
2023/07/29 02:46:16;;;;;;;3.85;2.25;;;;;;;18.35;100.00;100426.72;5007241;28;20049;-69
2023/07/29 02:48:44;;;;;;;6.72;2.40;;;;;;;18.34;100.00;100411.97;5006465;28;20056;-69
2023/07/29 02:51:09;;;;;;;2.97;2.58;;;;;;;18.34;100.00;100408.56;4984750;28;20115;-69
2023/07/29 02:53:36;;;;;;;4.38;2.35;;;;;;;18.33;100.00;100406.94;5004148;28;20033;-69
2023/07/29 02:56:03;;;;;;;4.30;2.38;;;;;;;18.31;100.00;100417.69;5006262;28;20646;-69
2023/07/29 02:58:29;;;;;;;3.92;2.42;;;;;;;18.28;100.00;100407.59;5008952;28;20082;-69
2023/07/29 03:01:03;;;;;;;4.10;2.35;;;;;;;18.28;100.00;100408.41;5003698;28;20050;-69
2023/07/29 03:03:30;;;;;;;4.03;2.65;;;;;;;18.27;100.00;100406.81;4989674;28;20511;-70
2023/07/29 03:06:04;;;;;;;5.75;3.15;;;;;;;18.29;100.00;100399.53;5004743;28;20051;-69
2023/07/29 03:08:30;;;;;;;3.97;2.30;;;;;;;18.28;100.00;100394.50;5022161;28;20510;-70
2023/07/29 03:10:57;;;;;;;3.28;2.10;;;;;;;18.30;100.00;100392.44;5020605;28;20053;-69
2023/07/29 03:13:22;;;;;;;4.15;3.03;;;;;;;18.29;100.00;100389.03;5005631;28;20029;-69
2023/07/29 03:15:48;;;;;;;3.30;2.60;;;;;;;18.33;100.00;100399.06;5020694;28;20099;-69
2023/07/29 03:18:14;;;;;;;4.07;2.55;;;;;;;18.32;100.00;100403.53;5003988;28;20044;-70
2023/07/29 03:20:40;;;;;;;3.10;2.65;;;;;;;18.31;100.00;100403.72;5003243;28;20156;-70
2023/07/29 03:23:06;;;;;;;2.63;2.33;;;;;;;18.32;100.00;100408.78;5002056;28;20045;-69
2023/07/29 03:25:31;;;;;;;4.20;2.47;;;;;;;18.27;100.00;100398.13;5004234;28;20662;-69
2023/07/29 03:27:57;;;;;;;3.63;2.60;;;;;;;18.26;100.00;100397.31;4987498;28;20072;-69
2023/07/29 03:30:23;;;;;;;3.80;3.00;;;;;;;18.34;100.00;100398.84;5022302;28;20033;-70
2023/07/29 03:32:49;;;;;;;6.22;2.90;;;;;;;18.26;100.00;100396.53;5003005;28;20041;-70
2023/07/29 03:35:15;;;;;;;5.35;2.95;;;;;;;18.25;100.00;100400.97;5001526;28;20104;-70
2023/07/29 03:37:41;;;;;;;4.82;2.90;;;;;;;18.26;100.00;100412.28;5008243;28;20061;-70
2023/07/29 03:40:08;;;;;;;7.85;3.17;;;;;;;18.28;100.00;100412.84;5007119;28;20048;-70
2023/07/29 03:42:35;;;;;;;6.18;2.95;;;;;;;18.27;100.00;100417.31;4990839;28;20527;-69
2023/07/29 03:45:00;;;;;;;5.82;3.15;;;;;;;18.21;100.00;100401.59;5005413;28;20783;-70
2023/07/29 03:47:27;;;;;;;7.20;2.33;;;;;;;18.20;100.00;100407.91;5018349;28;20038;-69
2023/07/29 03:49:53;;;;;;;6.30;2.60;;;;;;;18.20;100.00;100406.06;5005264;28;20034;-70
2023/07/29 03:52:21;;;;;;;4.40;2.55;;;;;;;18.17;100.00;100405.69;5004078;28;20036;-69
2023/07/29 03:54:47;;;;;;;6.28;2.92;;;;;;;18.14;100.00;100403.47;5007546;28;20030;-69
2023/07/29 03:57:12;;;;;;;4.63;2.70;;;;;;;18.12;100.00;100410.78;5004358;28;20455;-69
2023/07/29 03:59:38;;;;;;;3.38;2.88;;;;;;;18.08;100.00;100416.47;5004108;28;20029;-69
2023/07/29 04:02:04;;;;;;;5.13;2.95;;;;;;;18.06;100.00;100415.06;5005315;28;20792;-70
2023/07/29 04:04:29;;;;;;;4.25;3.42;;;;;;;18.04;100.00;100402.16;5009518;28;20116;-69
2023/07/29 04:06:55;;;;;;;6.93;2.95;;;;;;;18.05;100.00;100401.16;4995491;28;20095;-70
2023/07/29 04:09:21;;;;;;;3.70;2.70;;;;;;;18.02;100.00;100401.56;5005628;28;20459;-69
2023/07/29 04:11:46;;;;;;;5.00;2.50;;;;;;;17.99;100.00;100419.53;5008002;28;20607;-69
2023/07/29 04:14:12;;;;;;;4.40;2.50;;;;;;;17.98;100.00;100424.00;5009805;28;20037;-69
2023/07/29 04:16:37;;;;;;;3.25;2.30;;;;;;;17.97;100.00;100425.03;5005180;28;20102;-69
2023/07/29 04:19:03;;;;;;;4.00;2.50;;;;;;;18.00;100.00;100435.06;5007259;28;20025;-70
2023/07/29 04:21:29;;;;;;;3.58;2.65;;;;;;;17.97;100.00;100432.06;4990273;28;20041;-69
2023/07/29 04:23:54;;;;;;;2.97;2.20;;;;;;;17.96;100.00;100443.59;5009833;28;20132;-69
2023/07/29 04:26:19;;;;;;;3.55;2.55;;;;;;;17.95;100.00;100441.97;4990672;28;20040;-70
2023/07/29 04:28:45;;;;;;;3.45;2.58;;;;;;;17.92;100.00;100445.03;5003827;28;20507;-69
2023/07/29 04:31:10;;;;;;;6.03;2.72;;;;;;;17.93;100.00;100444.81;4992539;28;20038;-69
2023/07/29 04:33:36;;;;;;;3.97;2.60;;;;;;;17.89;100.00;100433.97;5006335;28;20033;-69
2023/07/29 04:36:01;;;;;;;4.03;2.85;;;;;;;17.87;100.00;100437.81;5006161;28;20045;-69
2023/07/29 04:38:32;;;;;;;5.13;3.10;;;;;;;17.86;100.00;100430.97;4989135;28;20476;-69
2023/07/29 04:41:00;;;;;;;3.28;2.55;;;;;;;17.88;100.00;100434.19;4987054;28;20037;-69
2023/07/29 04:43:31;;;;;;;4.80;2.58;;;;;;;17.87;100.00;100432.56;5008122;28;20515;-69
2023/07/29 04:45:56;;;;;;;3.53;2.40;;;;;;;17.86;100.00;100426.50;5020451;28;20045;-69
2023/07/29 04:48:22;;;;;;;4.22;2.60;;;;;;;17.86;100.00;100417.84;5007619;28;20308;-69
2023/07/29 04:50:47;;;;;;;3.13;2.45;;;;;;;17.88;100.00;100408.75;5040843;23;20071;-71
2023/07/29 04:53:13;;;;;;;6.25;2.28;;;;;;;17.91;100.00;100404.88;5007301;28;20643;-68
2023/07/29 04:55:42;;;;;;;5.53;2.33;;;;;;;17.95;100.00;100403.47;5023011;28;20033;-69
2023/07/29 04:58:08;;;;;;;3.17;2.00;;;;;;;17.97;100.00;100406.66;5026548;28;20217;-68
2023/07/29 05:00:35;;;;;;;5.68;2.40;;;;;;;17.97;100.00;100403.22;5044307;28;20037;-69
2023/07/29 05:03:01;;;;;;;5.10;2.65;;;;;;;17.98;100.00;100403.00;5044664;28;20029;-68
2023/07/29 05:05:27;;;;;;;6.93;2.33;;;;;;;18.01;100.00;100412.28;5030952;28;20087;-68
2023/07/29 05:07:52;;;;;;;6.03;2.47;;;;;;;18.02;100.00;100438.28;5027599;28;20052;-68
2023/07/29 05:10:18;;;;;;;3.85;2.00;;;;;;;18.03;100.00;100436.50;5046541;28;20040;-68
2023/07/29 05:12:43;;;;;;;3.65;2.47;;;;;;;18.01;100.00;100447.19;5028639;28;20037;-68
2023/07/29 05:15:09;;;;;;;3.28;2.50;;;;;;;18.02;100.00;100443.53;5039406;28;20036;-69
2023/07/29 05:17:35;;;;;;;8.05;2.85;;;;;;;18.01;100.00;100457.69;5025540;28;20521;-68
2023/07/29 05:20:00;;;;;;;6.00;3.13;;;;;;;18.00;100.00;100471.00;5024839;28;20044;-68
2023/07/29 05:22:26;;;;;;;4.45;2.50;;;;;;;17.93;100.00;100463.16;5026394;28;20110;-69
2023/07/29 05:24:51;;;;;;;4.85;2.38;;;;;;;17.91;100.00;100459.97;5040271;28;20044;-68
2023/07/29 05:27:17;;;;;;;3.22;2.50;;;;;;;17.86;100.00;100455.38;5026128;28;20045;-69
2023/07/29 05:29:42;;;;;;;3.80;2.05;;;;;;;17.84;100.00;100446.09;5027604;28;20544;-68
2023/07/29 05:32:08;;;;;;;3.40;2.00;;;;;;;17.82;100.00;100441.03;5030702;28;20744;-69
2023/07/29 05:34:33;;;;;;;7.78;2.08;;;;;;;17.82;100.00;100450.72;5028063;28;20041;-69
2023/07/29 05:36:58;;;;;;;3.00;2.20;;;;;;;17.80;100.00;100456.19;5042795;28;20756;-68
2023/07/29 05:39:24;;;;;;;6.75;2.28;;;;;;;17.77;100.00;100463.66;5033604;28;20090;-68
2023/07/29 05:41:49;;;;;;;2.55;1.88;;;;;;;17.74;100.00;100464.88;5041225;28;20406;-69
2023/07/29 05:44:15;;;;;;;2.92;1.90;;;;;;;17.74;100.00;100462.25;5029074;28;20051;-69
2023/07/29 05:46:40;;;;;;;3.13;2.22;;;;;;;17.75;100.00;100474.38;5024612;28;20140;-71
2023/07/29 05:49:06;;;;;;;4.57;1.88;;;;;;;17.74;100.00;100464.88;5047052;28;20520;-68
2023/07/29 05:51:32;;;;;;;7.28;2.20;;;;;;;17.80;100.00;100471.91;5043763;28;20497;-69
2023/07/29 05:53:57;;;;;;;6.82;2.25;;;;;;;17.83;100.00;100476.72;5029535;28;20032;-68
2023/07/29 05:56:23;;;;;;;7.88;2.28;;;;;;;17.88;100.00;100473.50;5027972;28;20052;-68
2023/07/29 05:58:51;;;;;;;4.50;2.20;;;;;;;17.78;100.00;100483.63;5027332;28;20067;-68
2023/07/29 06:01:16;;;;;;;4.32;1.80;;;;;;;17.81;100.00;100488.44;5027832;28;20033;-69
2023/07/29 06:03:42;;;;;;;3.28;1.77;;;;;;;17.80;100.00;100490.28;5031690;28;20446;-68
2023/07/29 06:06:08;;;;;;;2.88;2.00;;;;;;;17.80;100.00;100494.69;5044858;28;20037;-68
2023/07/29 06:08:34;;;;;;;6.65;1.77;;;;;;;17.78;100.00;100492.31;5044717;28;20495;-68
2023/07/29 06:11:00;;;;;;;3.58;1.42;;;;;;;17.77;100.00;100490.69;5026562;28;20033;-68
2023/07/29 06:13:25;;;;;;;5.47;1.60;;;;;;;17.76;100.00;100490.88;5025779;28;20032;-68
2023/07/29 06:15:51;;;;;;;2.78;1.67;;;;;;;17.75;100.00;100489.31;5026130;28;20524;-69
2023/07/29 06:18:16;;;;;;;2.63;1.45;;;;;;;17.84;100.00;100495.91;5025537;28;20044;-68
2023/07/29 06:20:42;;;;;;;2.63;1.50;;;;;;;17.86;100.00;100496.53;5025374;28;20029;-69
2023/07/29 06:23:08;;;;;;;5.28;1.95;;;;;;;17.90;100.00;100498.50;5024628;28;20045;-69
2023/07/29 06:25:34;;;;;;;3.28;1.75;;;;;;;18.04;100.00;100501.84;5025553;28;20061;-69
2023/07/29 06:27:59;;;;;;;5.30;1.67;;;;;;;18.12;100.00;100498.16;5042873;28;20025;-69
2023/07/29 06:30:25;;;;;;;2.45;1.33;;;;;;;18.24;100.00;100493.03;5044350;28;20402;-68
2023/07/29 06:32:50;;;;;;;4.47;1.65;;;;;;;18.29;100.00;100491.38;5042523;28;20075;-68
2023/07/29 06:35:16;;;;;;;1.95;1.30;;;;;;;18.44;100.00;100482.34;5044048;28;20055;-68
2023/07/29 06:37:41;;;;;;;3.40;2.40;;;;;;;18.74;100.00;100485.13;5024777;28;20465;-69
2023/07/29 06:40:07;;;;;;;3.08;1.83;;;;;;;18.92;100.00;100484.34;5041998;28;20037;-68
2023/07/29 06:42:33;;;;;;;2.90;1.33;;;;;;;19.24;100.00;100487.63;5024697;28;20037;-68
2023/07/29 06:44:58;;;;;;;1.95;1.75;;;;;;;19.57;100.00;100486.41;5025700;28;20068;-68
2023/07/29 06:47:23;;;;;;;3.47;1.73;;;;;;;19.63;100.00;100490.78;5012694;28;20045;-68
2023/07/29 06:49:49;;;;;;;3.50;1.60;;;;;;;19.65;100.00;100491.34;5044250;28;20947;-68
2023/07/29 06:52:15;;;;;;;3.78;1.77;;;;;;;19.54;100.00;100486.84;5024286;28;20037;-68
2023/07/29 06:54:40;;;;;;;2.00;1.50;;;;;;;19.49;100.00;100491.97;5045023;28;20044;-68
2023/07/29 06:57:06;;;;;;;2.88;1.80;;;;;;;19.56;100.00;100494.50;5024876;28;21109;-68
2023/07/29 06:59:31;;;;;;;3.30;1.83;;;;;;;19.52;100.00;100502.03;5043906;28;20036;-68
2023/07/29 07:01:57;;;;;;;1.65;1.40;;;;;;;20.05;100.00;100499.72;5041561;28;20045;-68
2023/07/29 07:04:22;;;;;;;2.50;1.50;;;;;;;20.32;100.00;100498.25;5042253;28;20080;-68
2023/07/29 07:06:48;;;;;;;2.65;1.38;;;;;;;20.70;98.80;100497.06;5044282;28;20033;-68
2023/07/29 07:09:13;;;;;;;3.03;1.50;;;;;;;21.23;95.34;100494.41;5027032;28;20036;-68
2023/07/29 07:11:39;;;;;;;3.38;1.42;;;;;;;21.30;92.33;100487.19;5025428;28;20885;-69
2023/07/29 07:14:04;;;;;;;3.53;1.30;;;;;;;20.80;92.13;100492.00;5042911;28;20044;-68
2023/07/29 07:16:30;;;;;;;2.78;1.10;;;;;;;20.69;92.62;100494.66;5024299;28;20045;-69
2023/07/29 07:18:56;;;;;;;3.20;1.17;;;;;;;20.98;91.16;100498.16;5027772;28;20445;-68
2023/07/29 07:21:22;;;;;;;2.33;1.33;;;;;;;21.70;87.18;100502.19;5042173;28;20052;-68
2023/07/29 07:23:50;;;;;;;3.60;1.17;;;;;;;22.36;84.84;100491.97;5026733;28;20044;-68
2023/07/29 07:26:15;;;;;;;6.13;1.20;;;;;;;22.60;82.21;100489.91;5046782;28;20056;-69
2023/07/29 07:28:40;;;;;;;1.77;1.02;;;;;;;22.41;83.05;100493.84;5026583;28;20425;-71
2023/07/29 07:31:06;;;;;;;2.08;1.00;;;;;;;21.94;83.41;100490.50;5027125;28;20036;-71
2023/07/29 07:33:32;;;;;;;4.15;1.20;;;;;;;22.01;82.08;100497.44;5030185;28;20052;-71
2023/07/29 07:35:57;;;;;;;1.50;0.80;;;;;;;21.71;82.56;100503.78;5029317;28;20037;-71
2023/07/29 07:38:23;;;;;;;2.03;1.00;;;;;;;21.61;82.17;100498.34;5026660;28;20039;-71
2023/07/29 07:40:55;;;;;;;5.28;2.10;;;;;;;21.85;82.54;100497.19;5046892;28;20108;-71
2023/07/29 07:43:21;;;;;;;2.72;1.05;;;;;;;21.43;83.61;100508.00;5025399;28;20033;-70
2023/07/29 07:45:46;;;;;;;5.43;1.10;;;;;;;21.75;81.94;100507.56;5049236;28;20082;-71
2023/07/29 07:48:13;;;;;;;1.05;0.90;;;;;;;22.59;77.54;100509.44;5046529;28;20029;-71
2023/07/29 07:50:39;;;;;;;1.15;0.90;;;;;;;23.34;77.20;100496.66;5008074;28;20040;-72
2023/07/29 07:53:05;;;;;;;2.17;0.90;;;;;;;23.60;73.42;100502.19;5045305;28;20056;-71
2023/07/29 07:55:30;;;;;;;2.47;1.00;;;;;;;24.15;72.34;100503.78;5043872;28;20033;-71
2023/07/29 07:57:56;;;;;;;2.33;0.77;;;;;;;24.57;70.41;100492.44;5028327;28;20032;-71
2023/07/29 08:00:21;;;;;;;1.05;0.80;;;;;;;24.66;70.14;100504.13;5044767;28;20052;-71
2023/07/29 08:02:47;;;;;;;1.80;0.90;;;;;;;24.51;68.17;100500.59;5026259;28;20033;-70
2023/07/29 08:05:12;;;;;;;5.07;1.00;;;;;;;24.72;67.90;100499.66;5027060;28;20032;-71
2023/07/29 08:07:38;;;;;;;1.42;0.90;;;;;;;24.86;66.48;100492.84;5046917;28;21291;-69
2023/07/29 08:10:03;;;;;;;15.45;4.13;;;;;;;25.22;66.57;100492.97;5050290;28;20052;-68
2023/07/29 08:12:29;;;;;;;4.28;1.23;;;;;;;24.80;65.30;100498.38;5049465;28;20082;-68
2023/07/29 08:14:54;;;;;;;1.38;0.73;;;;;;;24.86;67.08;100492.03;5044603;28;20036;-69
2023/07/29 08:17:20;;;;;;;20.25;2.20;;;;;;;25.12;66.74;100492.13;5028437;28;20036;-69
2023/07/29 08:19:45;;;;;;;3.90;1.40;;;;;;;25.09;68.35;100493.47;5027916;28;20411;-69
2023/07/29 08:22:11;;;;;;;1.30;0.70;;;;;;;24.58;67.14;100488.72;5051141;28;20176;-69
2023/07/29 08:24:36;;;;;;;1.02;0.70;;;;;;;24.75;67.36;100483.25;5026273;28;20041;-69
2023/07/29 08:27:02;;;;;;;1.02;0.82;;;;;;;25.06;67.36;100476.19;5049143;28;20044;-69
2023/07/29 08:29:27;;;;;;;1.50;0.70;;;;;;;25.34;65.07;100474.19;5047676;28;20031;-69
2023/07/29 08:31:53;;;;;;;1.58;0.70;;;;;;;25.95;63.37;100473.47;5028689;28;20392;-68
2023/07/29 08:34:18;;;;;;;3.45;1.30;;;;;;;25.74;65.01;100477.94;5051443;28;20025;-69
2023/07/29 08:36:43;;;;;;;3.17;0.98;;;;;;;25.38;63.19;100479.78;5028837;28;20037;-69
2023/07/29 08:39:09;;;;;;;1.77;0.90;;;;;;;25.21;65.36;100480.75;5031589;28;20040;-69
2023/07/29 08:41:46;;;;;;;3.88;1.48;;;;;;;25.01;65.75;100494.75;5043603;28;20131;-69
2023/07/29 08:44:36;;;;;;;12.60;2.40;;;;;;;25.47;64.03;100491.47;5046299;28;20032;-69
2023/07/29 08:47:02;;;;;;;23.85;5.43;;;;;;;24.85;66.59;100495.75;5007060;28;20037;-69
2023/07/29 08:49:30;;;;;;;2.05;1.10;;;;;;;24.10;67.28;100506.38;5046491;28;20035;-69
2023/07/29 08:51:57;;;;;;;21.63;4.43;;;;;;;24.07;67.74;100510.34;5033003;28;20045;-70
2023/07/29 08:54:23;;;;;;;8.80;2.63;;;;;;;23.55;71.85;100508.25;5046640;28;20465;-70
2023/07/29 08:56:49;;;;;;;4.13;1.30;;;;;;;23.24;72.78;100517.69;5029883;28;20037;-69
2023/07/29 08:59:16;;;;;;;2.80;1.05;;;;;;;23.01;74.32;100508.94;5042431;28;20048;-69
2023/07/29 09:01:43;;;;;;;1.20;0.80;;;;;;;22.93;74.70;100520.75;5026045;28;20224;-71
2023/07/29 09:04:09;;;;;;;6.95;1.98;;;;;;;22.76;75.94;100516.56;5027601;28;20612;-69
2023/07/29 09:06:35;;;;;;;3.35;1.20;;;;;;;22.51;75.07;100518.59;5048796;28;20056;-69
2023/07/29 09:09:02;;;;;;;4.45;1.17;;;;;;;22.29;77.72;100523.00;5050132;28;20029;-68
2023/07/29 09:11:28;;;;;;;2.88;0.80;;;;;;;22.19;78.56;100522.78;5041862;28;20110;-69
2023/07/29 09:13:53;;;;;;;1.58;0.90;;;;;;;22.32;78.55;100531.25;5048264;28;20044;-68
2023/07/29 09:16:23;;;;;;;1.05;0.70;;;;;;;22.11;77.71;100537.19;5042036;28;21088;-69
2023/07/29 09:18:50;;;;;;;2.30;1.20;;;;;;;22.05;78.75;100522.31;5032091;28;20037;-69
2023/07/29 09:21:22;;;;;;;5.15;1.20;;;;;;;22.25;77.72;100529.78;5029973;28;20396;-68
2023/07/29 09:23:49;;;;;;;4.27;1.00;;;;;;;22.16;78.03;100527.53;5038098;28;20463;-68
2023/07/29 09:26:22;;;;;;;4.65;0.90;;;;;;;22.13;79.33;100525.38;5046191;28;20459;-69
2023/07/29 09:28:52;;;;;;;1.65;0.90;;;;;;;22.46;78.75;100518.50;5027712;28;20040;-69
2023/07/29 09:31:28;;;;;;;1.27;1.00;;;;;;;23.08;77.01;100514.09;5043098;28;20539;-69
2023/07/29 09:34:02;;;;;;;2.75;1.20;;;;;;;23.98;74.34;100511.03;5047036;28;20025;-69
2023/07/29 09:36:31;;;;;;;3.55;0.90;;;;;;;24.37;69.81;100498.34;5047795;28;20168;-69
2023/07/29 09:38:57;;;;;;;4.05;1.15;;;;;;;25.15;68.36;100505.69;5045641;28;20495;-69
2023/07/29 09:41:27;;;;;;;1.60;0.90;;;;;;;24.87;66.80;100490.97;5026361;28;20068;-69
2023/07/29 09:44:01;;;;;;;1.20;0.90;;;;;;;24.63;67.22;100502.00;5034550;28;20049;-69
2023/07/29 09:46:34;;;;;;;4.28;1.65;;;;;;;24.60;66.79;100499.88;5046261;28;20076;-69
2023/07/29 09:49:01;;;;;;;1.88;1.00;;;;;;;24.96;69.39;100496.56;5031413;28;20045;-69
2023/07/29 09:51:27;;;;;;;7.20;1.00;;;;;;;25.04;67.11;100502.19;5026282;28;20059;-69
2023/07/29 09:53:52;;;;;;;3.53;0.95;;;;;;;24.85;67.47;100501.84;5027960;28;20849;-69
2023/07/29 09:56:18;;;;;;;1.33;1.13;;;;;;;24.90;67.37;100506.34;5013453;28;20048;-68
2023/07/29 09:58:45;;;;;;;1.02;0.75;;;;;;;24.44;67.35;100500.78;5048587;28;20037;-69
2023/07/29 10:01:11;;;;;;;1.40;1.00;;;;;;;23.79;67.74;100500.03;5038144;28;20033;-70
2023/07/29 10:03:37;;;;;;;1.38;0.98;;;;;;;23.72;69.97;100497.56;5027029;28;21812;-69
2023/07/29 10:06:04;;;;;;;1.58;1.00;;;;;;;23.77;71.63;100500.28;5047114;28;20045;-69
2023/07/29 10:08:31;;;;;;;2.00;1.02;;;;;;;23.61;71.54;100512.53;5044271;28;20124;-69
2023/07/29 10:11:01;;;;;;;1.80;1.10;;;;;;;24.00;69.96;100509.75;5011976;28;20052;-69
2023/07/29 10:13:27;;;;;;;2.08;0.88;;;;;;;24.39;69.52;100512.19;5040687;28;20423;-69
2023/07/29 10:15:54;;;;;;;3.97;0.90;;;;;;;24.58;66.61;100509.94;5042471;28;20048;-70
2023/07/29 10:18:21;;;;;;;4.40;1.17;;;;;;;24.39;68.95;100512.19;5026971;28;20029;-69
2023/07/29 10:20:50;;;;;;;5.60;0.95;;;;;;;24.28;69.44;100513.94;5038509;28;20032;-69
2023/07/29 10:23:21;;;;;;;1.17;0.85;;;;;;;24.28;67.84;100513.94;5029146;28;20025;-69
2023/07/29 10:25:50;;;;;;;2.15;0.90;;;;;;;24.17;68.95;100498.25;5032539;28;20045;-68
2023/07/29 10:28:20;;;;;;;1.73;0.98;;;;;;;23.97;68.75;100510.25;5042323;28;20028;-68
2023/07/29 10:30:46;;;;;;;5.05;1.00;;;;;;;23.62;68.24;100508.03;5011512;28;20044;-70
2023/07/29 10:33:12;;;;;;;6.63;1.20;;;;;;;23.73;69.42;100506.31;5026352;28;20125;-70
2023/07/29 10:35:38;;;;;;;1.17;1.00;;;;;;;23.68;68.97;100497.28;5013632;28;20550;-70
2023/07/29 10:38:06;;;;;;;1.70;1.00;;;;;;;23.75;70.15;100509.50;5026392;28;23017;-69
2023/07/29 10:40:47;;;;;;;1.48;1.00;;;;;;;23.76;68.77;100508.47;5025862;28;20133;-68
2023/07/29 10:43:18;;;;;;;1.85;0.90;;;;;;;23.50;68.80;100516.94;5007373;28;20543;-69
2023/07/29 10:45:43;;;;;;;4.32;0.80;;;;;;;23.24;68.54;100507.91;5024774;28;20127;-69
2023/07/29 10:48:33;;;;;;;3.05;1.42;;;;;;;23.31;70.82;100510.38;5028592;28;20040;-69
2023/07/29 10:51:30;;;;;;;1.75;1.05;;;;;;;23.08;71.27;100514.88;5023340;28;20044;-69
2023/07/29 10:53:57;;;;;;;1.23;0.90;;;;;;;23.11;70.77;100524.16;5024766;28;20071;-69
2023/07/29 10:56:27;;;;;;;1.00;0.90;;;;;;;23.07;69.70;100518.56;5026137;28;20069;-68
2023/07/29 10:58:56;;;;;;;1.70;1.10;;;;;;;22.91;70.17;100514.09;5024712;23;20046;-70
2023/07/29 11:01:34;;;;;;;1.25;0.98;;;;;;;23.02;70.74;100515.84;4986732;28;20077;-70
2023/07/29 11:04:24;;;;;;;1.65;0.90;;;;;;;22.96;72.69;100513.34;5001422;28;20042;-71
2023/07/29 11:07:05;;;;;;;2.15;1.00;;;;;;;23.33;70.75;100518.84;5006437;28;20117;-70
2023/07/29 11:09:41;;;;;;;2.13;1.00;;;;;;;23.46;68.90;100499.97;5018234;28;20029;-71
2023/07/29 11:12:35;;;;;;;1.38;1.05;;;;;;;23.51;69.60;100500.00;5010031;28;20153;-70
2023/07/29 11:15:23;;;;;;;2.17;1.00;;;;;;;24.13;70.43;100503.25;5037881;28;20041;-70
2023/07/29 11:18:00;;;;;;;8.73;1.25;;;;;;;24.33;65.78;100501.78;5030298;28;20037;-71
2023/07/29 11:20:28;;;;;;;2.80;1.08;;;;;;;24.30;66.27;100495.16;5033498;28;20057;-70